CheckWX is a tool to help pilots better visualize weather data.  It is not intended as a substitute for an official pre-flight weather briefing.

16:06:53 UTC

KDAW METAR
Skyhaven Airport
Rochester, New Hampshire, USA
Current

1 hour ago

KDAW 261451Z AUTO 00000KT 10SM FEW016 23/16 A3021 RMK AO2 SLP225 T02280161 58004
Observed
May-26 @ 14:51 UTC
Visibility
Flight Rules
VFR
Cloud Levels
  • Few at 1,600' AGL
Temperature
23°C / 73°F
Dewpoint
16°C / 61°F
Humidity
65%
Altimeter
30.21" Hg
Pressure
1023.02 hPa
Previous

2 hours ago

KDAW 261428Z AUTO VRB03KT 10SM SCT013 21/16 A3021 RMK AO2 T02060156
Observed
May-26 @ 14:28 UTC
Wind
  • Variable at 3 KTS
Visibility
Flight Rules
VFR
Cloud Levels
  • Scattered at 1,300' AGL
Temperature
21°C / 70°F
Dewpoint
16°C / 61°F
Humidity
73%
Altimeter
30.21" Hg
Pressure
1023.02 hPa
Previous

2 hours ago

KDAW 261351Z AUTO 00000KT 10SM OVC010 20/15 A3021 RMK AO2 SLP227 T02000150
Observed
May-26 @ 13:51 UTC
Visibility
Flight Rules
MVFR
Cloud Levels
  • Overcast at 1,000' AGL
Temperature
20°C / 68°F
Dewpoint
15°C / 59°F
Humidity
73%
Altimeter
30.21" Hg
Pressure
1023.02 hPa